Time;durP1;ratioP1;P1;durP2;ratioP2;P2;SDS_P1;SDS_P2;PMS_P1;PMS_P2;Temp;Humidity;BMP_temperature;BMP_pressure;BME280_temperature;BME280_humidity;BME280_pressure;Samples;Min_cycle;Max_cycle;Signal;HPM_P1;HPM_P2
2023/08/23 00:00:11;;;;;;;6.70;3.70;;;;;;;19.69;53.22;100621.38;105149;1254;64887;-54
2023/08/23 00:02:41;;;;;;;8.80;3.70;;;;;;;19.64;53.31;100621.38;106132;1257;60404;-54
2023/08/23 00:05:09;;;;;;;9.00;4.00;;;;;;;19.58;53.58;100623.08;105496;1254;64736;-54
2023/08/23 00:07:36;;;;;;;6.90;3.50;;;;;;;19.53;53.80;100627.84;105804;1254;60546;-53
2023/08/23 00:10:04;;;;;;;8.10;4.30;;;;;;;19.47;53.90;100631.57;105293;1257;60450;-53
2023/08/23 00:12:32;;;;;;;6.30;3.70;;;;;;;19.44;54.20;100633.98;105524;1258;64897;-52
2023/08/23 00:15:00;;;;;;;7.50;3.70;;;;;;;19.43;54.59;100630.50;105354;1257;61465;-55
2023/08/23 00:17:27;;;;;;;6.20;3.40;;;;;;;19.48;54.79;100625.09;105353;1253;63760;-54
2023/08/23 00:19:55;;;;;;;8.80;3.80;;;;;;;19.55;54.53;100627.23;105145;1259;61738;-54
2023/08/23 00:22:22;;;;;;;8.60;4.10;;;;;;;19.59;54.37;100627.48;105631;1256;60495;-53
2023/08/23 00:24:50;;;;;;;7.30;3.80;;;;;;;19.59;54.11;100634.02;105477;1256;64889;-54
2023/08/23 00:27:17;;;;;;;8.20;3.80;;;;;;;19.60;53.93;100632.68;105496;1254;61356;-55
2023/08/23 00:29:45;;;;;;;6.60;3.30;;;;;;;19.60;53.92;100638.58;105423;1254;63774;-55
2023/08/23 00:32:13;;;;;;;9.30;3.90;;;;;;;19.58;53.97;100633.38;105317;1254;60584;-56
2023/08/23 00:34:40;;;;;;;6.70;3.30;;;;;;;19.57;54.30;100639.27;105265;1257;60354;-55
2023/08/23 00:37:07;;;;;;;6.90;3.50;;;;;;;19.55;54.40;100646.27;105259;1254;65041;-55
2023/08/23 00:39:35;;;;;;;6.00;3.50;;;;;;;19.47;54.43;100644.06;105284;1254;60353;-55
2023/08/23 00:42:03;;;;;;;9.20;4.10;;;;;;;19.42;54.64;100641.44;105188;1254;63747;-55
2023/08/23 00:44:31;;;;;;;6.60;3.70;;;;;;;19.40;54.70;100645.79;105394;1256;60553;-55
2023/08/23 00:46:58;;;;;;;9.70;3.90;;;;;;;19.36;54.86;100645.55;105480;1252;60821;-54
2023/08/23 00:49:26;;;;;;;6.70;3.00;;;;;;;19.34;54.88;100644.48;105432;1251;64879;-55
2023/08/23 00:51:53;;;;;;;6.70;3.50;;;;;;;19.36;54.92;100647.02;105304;1257;60554;-56
2023/08/23 00:54:21;;;;;;;6.90;3.20;;;;;;;19.36;54.95;100646.58;105304;1255;63762;-55
2023/08/23 00:56:49;;;;;;;7.80;3.80;;;;;;;19.34;54.92;100634.41;105345;1254;60574;-55
2023/08/23 00:59:16;;;;;;;7.10;3.70;;;;;;;19.30;55.06;100626.86;105170;1259;60500;-55
2023/08/23 01:01:44;;;;;;;9.00;3.20;;;;;;;19.28;54.93;100628.67;105537;1260;64947;-56
2023/08/23 01:04:12;;;;;;;7.50;3.10;;;;;;;19.25;54.87;100622.79;105215;1260;60434;-55
2023/08/23 01:06:45;;;;;;;8.50;3.60;;;;;;;19.20;55.00;100624.21;105499;1252;64102;-56
2023/08/23 01:09:29;;;;;;;5.50;3.20;;;;;;;19.19;55.31;100632.15;105483;1258;60461;-55
2023/08/23 01:12:13;;;;;;;7.10;3.60;;;;;;;19.21;55.65;100631.73;105572;1255;60908;-56
2023/08/23 01:15:01;;;;;;;6.10;3.10;;;;;;;19.27;55.59;100620.91;105707;1254;65407;-55
2023/08/23 01:17:54;;;;;;;6.90;3.70;;;;;;;19.34;55.31;100614.46;105887;1254;61813;-55
2023/08/23 01:20:23;;;;;;;6.80;3.10;;;;;;;19.36;54.99;100612.58;106167;1259;62463;-55
2023/08/23 01:23:02;;;;;;;6.40;3.00;;;;;;;19.35;54.86;100611.02;105605;1254;60505;-56
2023/08/23 01:25:29;;;;;;;5.20;3.00;;;;;;;19.31;55.02;100604.48;105364;1251;60636;-55
2023/08/23 01:27:57;;;;;;;5.50;3.00;;;;;;;19.29;55.20;100601.81;105565;1257;66004;-55
2023/08/23 01:30:25;;;;;;;8.40;3.40;;;;;;;19.28;55.04;100599.95;105444;1254;61551;-54
2023/08/23 01:33:04;;;;;;;8.10;3.50;;;;;;;19.26;55.19;100600.40;105267;1258;62603;-55
2023/08/23 01:35:43;;;;;;;7.90;3.40;;;;;;;19.22;55.12;100601.34;105490;1254;61238;-55
2023/08/23 01:38:11;;;;;;;6.70;3.80;;;;;;;19.15;55.27;100604.31;106662;1254;60544;-55
2023/08/23 01:40:38;;;;;;;9.10;3.60;;;;;;;19.11;55.27;100611.20;105500;1257;64873;-55
2023/08/23 01:43:06;;;;;;;6.00;3.10;;;;;;;19.06;55.38;100614.70;105312;1252;60545;-56
2023/08/23 01:45:33;;;;;;;5.90;3.20;;;;;;;19.02;55.32;100616.11;105315;1253;64822;-55
2023/08/23 01:48:01;;;;;;;6.00;3.40;;;;;;;19.00;55.35;100615.65;105556;1253;60533;-55
2023/08/23 01:50:29;;;;;;;6.80;3.20;;;;;;;18.98;55.45;100617.23;105404;1253;59618;-55
2023/08/23 01:52:56;;;;;;;7.20;3.40;;;;;;;18.95;55.61;100618.63;105341;1254;64862;-55
2023/08/23 01:55:24;;;;;;;5.70;2.90;;;;;;;18.92;55.57;100613.45;105573;1254;61502;-55
2023/08/23 01:57:51;;;;;;;6.40;3.40;;;;;;;18.90;55.47;100608.02;105329;1254;62711;-55
2023/08/23 02:00:19;;;;;;;6.90;3.30;;;;;;;18.88;55.24;100610.37;105274;1257;60549;-55
2023/08/23 02:02:46;;;;;;;7.50;3.00;;;;;;;18.84;55.04;100611.13;105417;1257;60521;-55
2023/08/23 02:05:14;;;;;;;5.80;3.00;;;;;;;18.78;54.83;100613.27;105262;1254;63640;-56
2023/08/23 02:07:42;;;;;;;6.90;3.10;;;;;;;18.71;54.70;100618.94;105282;1253;61764;-54
2023/08/23 02:10:09;;;;;;;5.30;2.90;;;;;;;18.65;54.93;100615.76;105115;1258;62418;-55
2023/08/23 02:12:37;;;;;;;5.90;3.20;;;;;;;18.59;55.11;100613.40;105378;1256;60630;-54
2023/08/23 02:15:05;;;;;;;6.50;3.30;;;;;;;18.54;55.29;100616.55;105194;1254;61155;-56
2023/08/23 02:17:33;;;;;;;8.60;3.30;;;;;;;18.56;55.55;100616.34;105841;1256;65401;-56
2023/08/23 02:20:00;;;;;;;5.20;2.70;;;;;;;18.62;55.45;100622.42;105323;1255;61382;-55
2023/08/23 02:22:28;;;;;;;6.70;3.20;;;;;;;18.65;55.46;100620.67;105582;1254;62751;-55
2023/08/23 02:24:56;;;;;;;6.90;2.90;;;;;;;18.66;55.21;100615.63;105237;1254;60684;-55
2023/08/23 02:27:23;;;;;;;7.30;3.20;;;;;;;18.66;55.12;100614.19;105300;1254;60479;-55
2023/08/23 02:29:51;;;;;;;6.10;3.10;;;;;;;18.66;55.07;100611.75;105399;1253;67368;-55
2023/08/23 02:32:19;;;;;;;6.50;2.70;;;;;;;18.65;55.04;100616.75;105466;1254;60495;-55
2023/08/23 02:34:47;;;;;;;6.20;2.90;;;;;;;18.64;54.91;100622.09;105414;1254;63938;-55
2023/08/23 02:37:15;;;;;;;6.00;3.00;;;;;;;18.60;54.90;100626.20;105344;1254;60536;-55
2023/08/23 02:39:42;;;;;;;6.50;2.80;;;;;;;18.53;55.13;100623.77;105179;1254;60451;-54
2023/08/23 02:42:10;;;;;;;7.20;2.90;;;;;;;18.42;55.37;100616.33;105384;1254;64856;-55
2023/08/23 02:44:37;;;;;;;7.60;3.60;;;;;;;18.42;55.58;100608.31;105259;1258;72539;-56
2023/08/23 02:47:05;;;;;;;6.30;3.10;;;;;;;18.45;55.54;100615.30;105359;1257;63726;-55
2023/08/23 02:49:33;;;;;;;7.90;3.70;;;;;;;18.49;55.42;100621.95;105216;1254;62056;-55
2023/08/23 02:52:00;;;;;;;7.60;3.30;;;;;;;18.48;55.48;100618.61;105489;1254;60555;-55
2023/08/23 02:54:28;;;;;;;7.70;3.50;;;;;;;18.46;55.59;100615.48;105314;1257;64893;-54
2023/08/23 02:56:55;;;;;;;7.30;2.90;;;;;;;18.45;55.74;100612.86;105137;1254;61361;-55
2023/08/23 02:59:23;;;;;;;6.40;3.20;;;;;;;18.44;55.88;100610.56;105250;1254;63752;-49
2023/08/23 03:01:51;;;;;;;7.50;3.50;;;;;;;18.45;56.15;100619.23;105439;1254;60562;-48
2023/08/23 03:04:18;;;;;;;6.80;3.30;;;;;;;18.44;56.22;100628.92;105576;1257;60407;-49
2023/08/23 03:06:46;;;;;;;6.60;3.10;;;;;;;18.41;56.25;100637.56;105373;1254;63677;-49
2023/08/23 03:09:13;;;;;;;8.30;3.40;;;;;;;18.39;56.05;100647.73;105675;1255;60456;-49
2023/08/23 03:11:41;;;;;;;6.20;3.10;;;;;;;18.38;55.79;100646.93;105320;1257;75344;-49
2023/08/23 03:14:12;;;;;;;7.20;3.50;;;;;;;18.34;55.78;100643.58;105469;1254;60540;-51
2023/08/23 03:16:39;;;;;;;7.50;3.30;;;;;;;18.38;55.83;100643.41;105257;1254;60529;-49
2023/08/23 03:19:07;;;;;;;6.90;3.40;;;;;;;18.43;55.89;100641.48;105179;1251;64909;-46
2023/08/23 03:21:35;;;;;;;6.60;3.10;;;;;;;18.45;55.88;100645.10;105287;1254;61886;-49
2023/08/23 03:24:03;;;;;;;6.60;3.40;;;;;;;18.45;55.92;100651.81;105485;1254;63810;-50
2023/08/23 03:26:30;;;;;;;6.50;3.10;;;;;;;18.43;56.04;100655.95;105369;1253;60481;-50
2023/08/23 03:28:58;;;;;;;9.90;3.50;;;;;;;18.42;55.96;100657.22;105238;1252;60472;-50
2023/08/23 03:31:25;;;;;;;8.30;4.00;;;;;;;18.42;56.21;100656.29;105407;1257;64487;-50
2023/08/23 03:33:53;;;;;;;6.40;3.20;;;;;;;18.48;56.23;100646.95;105339;1256;61423;-51
2023/08/23 03:36:21;;;;;;;7.90;3.60;;;;;;;18.57;56.20;100645.79;105539;1251;64093;-56
2023/08/23 03:41:47;;;;;;;8.90;3.60;;;;;;;18.48;56.60;100637.85;102124;1297;600832;-54
2023/08/23 03:44:17;;;;;;;6.90;3.80;;;;;;;18.74;55.87;100647.41;104367;1272;59404;-55
2023/08/23 03:46:46;;;;;;;8.00;3.70;;;;;;;18.80;55.68;100658.38;104399;1273;59299;-55
2023/08/23 03:49:16;;;;;;;6.30;3.90;;;;;;;18.79;55.35;100652.61;104460;1271;62123;-55
2023/08/23 03:51:43;;;;;;;7.40;3.80;;;;;;;18.75;55.33;100648.32;104344;1269;61713;-52
2023/08/23 03:54:12;;;;;;;8.00;3.90;;;;;;;18.74;55.50;100640.52;104584;1267;63768;-55
2023/08/23 03:56:41;;;;;;;7.80;3.90;;;;;;;18.73;55.43;100637.06;104482;1259;59291;-55
2023/08/23 03:59:11;;;;;;;5.80;3.30;;;;;;;18.73;55.43;100636.17;104925;1265;59372;-55
2023/08/23 04:01:40;;;;;;;6.90;3.70;;;;;;;18.79;55.53;100641.91;104935;1266;62053;-51
2023/08/23 04:04:09;;;;;;;6.30;3.30;;;;;;;18.87;55.23;100644.75;104977;1262;63867;-55
2023/08/23 04:06:38;;;;;;;9.00;4.10;;;;;;;18.92;54.98;100649.95;105341;1262;63774;-54
2023/08/23 04:09:06;;;;;;;8.10;3.80;;;;;;;18.94;54.95;100654.54;104882;1261;59848;-55
2023/08/23 04:11:34;;;;;;;6.70;3.30;;;;;;;18.95;55.01;100657.73;104841;1260;59847;-54
2023/08/23 04:14:03;;;;;;;7.00;3.20;;;;;;;18.99;54.79;100657.73;104717;1266;66509;-55
2023/08/23 04:16:31;;;;;;;6.10;3.30;;;;;;;19.03;54.69;100658.14;105018;1263;63695;-56
2023/08/23 04:19:00;;;;;;;8.10;3.80;;;;;;;19.07;54.72;100650.77;104889;1265;63969;-54
2023/08/23 04:21:28;;;;;;;7.20;3.60;;;;;;;19.14;54.80;100642.86;104688;1265;59708;-53
2023/08/23 04:23:57;;;;;;;8.80;3.60;;;;;;;19.25;54.57;100641.84;104792;1265;59703;-53
2023/08/23 04:26:25;;;;;;;9.00;3.30;;;;;;;19.36;54.31;100640.02;104662;1261;64153;-55
2023/08/23 04:28:52;;;;;;;6.50;3.60;;;;;;;19.47;54.27;100631.98;104725;1266;60112;-55
2023/08/23 04:31:20;;;;;;;7.10;3.50;;;;;;;19.63;53.83;100633.06;104682;1265;64877;-50
2023/08/23 04:33:53;;;;;;;7.30;3.60;;;;;;;19.77;53.47;100636.23;107474;1257;59856;-51
2023/08/23 04:36:21;;;;;;;7.40;3.50;;;;;;;19.88;53.45;100628.82;105417;1258;62506;-53
2023/08/23 04:38:48;;;;;;;9.00;3.50;;;;;;;19.98;53.46;100628.92;105138;1257;62923;-54
2023/08/23 04:41:17;;;;;;;6.70;2.80;;;;;;;20.08;52.83;100634.14;105761;1257;61828;-54
2023/08/23 04:43:46;;;;;;;6.50;3.20;;;;;;;20.13;52.29;100637.31;105010;1261;75212;-55
2023/08/23 04:46:14;;;;;;;5.50;2.70;;;;;;;20.14;52.47;100633.92;104939;1264;59757;-56
2023/08/23 04:48:42;;;;;;;6.90;3.10;;;;;;;20.17;52.33;100636.61;105315;1258;60539;-53
2023/08/23 04:51:11;;;;;;;5.60;3.10;;;;;;;20.17;52.15;100645.67;105136;1262;64118;-50
2023/08/23 04:53:40;;;;;;;6.80;3.50;;;;;;;20.16;52.30;100650.85;106339;1258;61666;-51
2023/08/23 04:56:09;;;;;;;5.10;2.80;;;;;;;20.16;52.44;100648.68;105200;1261;62611;-50
2023/08/23 04:58:39;;;;;;;7.10;3.60;;;;;;;20.20;52.22;100652.79;105440;1258;59768;-56
2023/08/23 05:01:09;;;;;;;6.10;3.10;;;;;;;20.22;52.14;100653.98;105332;1257;60822;-55
2023/08/23 05:03:39;;;;;;;6.90;3.00;;;;;;;20.25;52.29;100653.59;105150;1262;64049;-50
2023/08/23 05:06:07;;;;;;;5.50;2.50;;;;;;;20.28;52.10;100645.48;104993;1257;61908;-47
2023/08/23 05:08:35;;;;;;;6.50;3.10;;;;;;;20.34;52.13;100642.52;105384;1257;63841;-48
2023/08/23 05:11:07;;;;;;;7.90;3.00;;;;;;;20.40;52.29;100646.93;105081;1258;59759;-51
2023/08/23 05:13:36;;;;;;;5.70;2.80;;;;;;;20.50;52.34;100649.35;105321;1255;59600;-48
2023/08/23 05:16:05;;;;;;;5.40;3.00;;;;;;;20.63;52.14;100657.77;105336;1257;66021;-49
2023/08/23 05:18:34;;;;;;;6.00;2.70;;;;;;;20.73;52.00;100659.15;105100;1260;63025;-51
2023/08/23 05:21:02;;;;;;;7.70;2.50;;;;;;;20.80;51.61;100654.73;105122;1263;63767;-49
2023/08/23 05:23:30;;;;;;;5.00;2.00;;;;;;;20.86;50.96;100649.02;105414;1257;59688;-51
2023/08/23 05:25:59;;;;;;;5.10;2.20;;;;;;;20.89;50.93;100649.89;105061;1260;59627;-50
2023/08/23 05:28:27;;;;;;;5.20;2.80;;;;;;;20.93;50.50;100656.69;105403;1257;64151;-50
2023/08/23 05:30:54;;;;;;;4.10;2.20;;;;;;;20.97;50.28;100658.36;105270;1259;61553;-52
2023/08/23 05:33:25;;;;;;;6.90;2.70;;;;;;;21.03;50.11;100656.67;104996;1255;65428;-54
2023/08/23 05:35:53;;;;;;;6.90;3.00;;;;;;;21.07;50.54;100654.05;104996;1260;59894;-51
2023/08/23 05:38:23;;;;;;;5.90;2.60;;;;;;;21.12;50.34;100652.55;105495;1254;60946;-53
2023/08/23 05:40:51;;;;;;;7.10;2.90;;;;;;;21.18;50.39;100650.23;105393;1254;64091;-52
2023/08/23 05:43:19;;;;;;;5.50;2.90;;;;;;;21.24;49.86;100653.73;105298;1255;61895;-51
2023/08/23 05:45:47;;;;;;;6.10;2.40;;;;;;;21.29;49.29;100656.17;105120;1257;63736;-53
2023/08/23 05:48:14;;;;;;;8.70;3.30;;;;;;;21.32;49.23;100658.41;104844;1256;59747;-53
2023/08/23 05:50:42;;;;;;;9.50;3.00;;;;;;;21.37;49.43;100655.04;105140;1260;61894;-53
2023/08/23 05:53:11;;;;;;;5.10;2.40;;;;;;;21.42;49.32;100649.83;105244;1260;64310;-54
2023/08/23 05:55:39;;;;;;;6.70;2.60;;;;;;;21.47;49.10;100649.59;105230;1254;61618;-55
2023/08/23 05:58:06;;;;;;;8.20;3.20;;;;;;;21.51;48.94;100649.27;105121;1260;63722;-55
2023/08/23 06:00:34;;;;;;;5.90;2.30;;;;;;;21.56;48.93;100648.15;105363;1254;59675;-55
2023/08/23 06:03:01;;;;;;;7.20;2.90;;;;;;;21.63;49.41;100643.69;105296;1258;59197;-57
2023/08/23 06:05:29;;;;;;;6.50;2.60;;;;;;;21.74;49.34;100646.48;105126;1254;64784;-57
2023/08/23 06:07:57;;;;;;;7.00;3.00;;;;;;;21.83;49.23;100645.66;105079;1254;61379;-56
2023/08/23 06:10:24;;;;;;;6.40;2.70;;;;;;;21.92;49.03;100640.96;105329;1254;64282;-59
2023/08/23 06:12:52;;;;;;;5.80;2.60;;;;;;;22.02;48.63;100639.17;105337;1254;59640;-51
2023/08/23 06:15:20;;;;;;;5.70;2.70;;;;;;;22.13;48.22;100636.13;105579;1257;59755;-52
2023/08/23 06:17:47;;;;;;;8.40;3.10;;;;;;;22.22;47.98;100637.37;105256;1259;64764;-51
2023/08/23 06:20:16;;;;;;;8.50;3.10;;;;;;;22.36;47.53;100639.85;105168;1254;61449;-52
2023/08/23 06:22:44;;;;;;;5.90;2.80;;;;;;;22.48;47.36;100638.67;106437;1260;62687;-52
2023/08/23 06:25:11;;;;;;;5.30;2.00;;;;;;;22.60;47.00;100637.02;105882;1254;60059;-52
2023/08/23 06:27:39;;;;;;;5.80;2.70;;;;;;;22.71;46.88;100640.90;105508;1253;59602;-52
2023/08/23 06:30:07;;;;;;;4.70;2.40;;;;;;;22.84;46.92;100641.47;105286;1254;64086;-51
2023/08/23 06:32:35;;;;;;;5.30;2.20;;;;;;;22.95;46.70;100641.61;105421;1254;61377;-54
2023/08/23 06:35:03;;;;;;;6.10;2.30;;;;;;;23.04;45.97;100644.43;105271;1254;72640;-52
2023/08/23 06:37:30;;;;;;;6.20;2.50;;;;;;;23.10;46.57;100641.89;106053;1254;59652;-53
2023/08/23 06:39:58;;;;;;;6.40;2.40;;;;;;;23.16;46.10;100636.05;105271;1254;59781;-50
2023/08/23 06:42:26;;;;;;;8.60;3.10;;;;;;;23.22;45.80;100631.58;105289;1259;64067;-50
2023/08/23 06:44:53;;;;;;;5.40;2.80;;;;;;;23.26;46.08;100631.92;105214;1254;61457;-49
2023/08/23 06:47:24;;;;;;;9.80;2.70;;;;;;;23.30;46.36;100632.35;105300;1254;63926;-50
2023/08/23 06:49:52;;;;;;;6.00;2.40;;;;;;;23.32;46.50;100637.04;105126;1260;59664;-53
2023/08/23 06:52:19;;;;;;;6.90;2.80;;;;;;;23.33;46.16;100634.07;105583;1254;59658;-55
2023/08/23 06:54:48;;;;;;;6.00;2.70;;;;;;;23.31;45.83;100634.51;105446;1259;64222;-55
2023/08/23 06:57:20;;;;;;;6.10;2.80;;;;;;;23.31;45.86;100639.14;105450;1255;61316;-55
2023/08/23 06:59:48;;;;;;;6.30;3.00;;;;;;;23.33;46.34;100636.05;106029;1254;72977;-55
2023/08/23 07:02:16;;;;;;;6.90;2.40;;;;;;;23.39;46.76;100637.67;105347;1254;59848;-55
2023/08/23 07:04:43;;;;;;;6.80;2.70;;;;;;;23.46;46.39;100634.52;105175;1254;59752;-55
2023/08/23 07:07:11;;;;;;;6.70;2.30;;;;;;;23.50;46.53;100629.33;105094;1254;63113;-56
2023/08/23 07:09:39;;;;;;;7.50;2.50;;;;;;;23.55;46.39;100628.51;105010;1254;60406;-57
2023/08/23 07:12:07;;;;;;;5.00;2.50;;;;;;;23.61;46.44;100629.65;105113;1254;73597;-54
2023/08/23 07:14:34;;;;;;;5.90;2.50;;;;;;;23.66;45.48;100632.05;105542;1253;59716;-55
2023/08/23 07:17:02;;;;;;;7.90;2.20;;;;;;;23.68;44.70;100631.23;105093;1254;59702;-50
2023/08/23 07:19:29;;;;;;;8.50;2.80;;;;;;;23.70;44.33;100634.73;105339;1257;64132;-54
2023/08/23 07:21:59;;;;;;;6.30;2.20;;;;;;;23.73;44.35;100642.98;105117;1254;60099;-55
2023/08/23 07:24:27;;;;;;;8.30;2.40;;;;;;;23.74;43.84;100639.40;105158;1254;63720;-54
2023/08/23 07:26:55;;;;;;;6.40;2.30;;;;;;;23.74;43.38;100631.66;105073;1254;59740;-55
2023/08/23 07:29:22;;;;;;;7.60;2.50;;;;;;;23.75;43.36;100625.25;105126;1258;60031;-55
2023/08/23 07:31:50;;;;;;;5.80;2.20;;;;;;;23.78;43.39;100620.64;105859;1258;64573;-55
2023/08/23 07:34:18;;;;;;;6.80;2.20;;;;;;;23.83;43.76;100621.45;105203;1254;61874;-54
2023/08/23 07:36:50;;;;;;;6.30;2.80;;;;;;;23.89;42.79;100621.13;107952;1254;74826;-54
2023/08/23 07:39:18;;;;;;;4.70;2.00;;;;;;;23.92;42.54;100622.83;105167;1259;59742;-52
2023/08/23 07:41:45;;;;;;;6.30;1.80;;;;;;;23.97;41.93;100626.77;105151;1254;59663;-55
2023/08/23 07:44:13;;;;;;;16.90;2.80;;;;;;;23.99;41.68;100626.65;105090;1257;64293;-59
2023/08/23 07:46:41;;;;;;;7.70;1.80;;;;;;;24.03;41.67;100629.86;109099;1253;60227;-59
2023/08/23 07:49:09;;;;;;;5.60;2.10;;;;;;;24.08;41.72;100626.44;108803;1254;64396;-58
2023/08/23 07:51:38;;;;;;;5.80;1.70;;;;;;;24.15;41.05;100624.84;108263;1254;59547;-56
2023/08/23 07:54:07;;;;;;;6.50;1.90;;;;;;;24.22;41.09;100622.98;109038;1254;59998;-56
2023/08/23 07:56:34;;;;;;;5.10;2.30;;;;;;;24.32;41.50;100623.80;105669;1258;64857;-48
2023/08/23 07:59:02;;;;;;;7.40;1.80;;;;;;;24.42;40.97;100621.89;105370;1259;60447;-56
2023/08/23 08:01:29;;;;;;;4.80;1.80;;;;;;;24.51;40.57;100625.02;105381;1254;63762;-55
2023/08/23 08:03:58;;;;;;;6.10;2.40;;;;;;;24.57;40.59;100625.61;105691;1254;60542;-56
2023/08/23 08:06:25;;;;;;;5.60;2.00;;;;;;;24.62;40.45;100626.69;105464;1258;60589;-56
2023/08/23 08:08:53;;;;;;;5.60;1.70;;;;;;;24.66;40.27;100627.89;105488;1257;64815;-57
2023/08/23 08:11:21;;;;;;;7.60;2.00;;;;;;;24.66;39.86;100628.92;105252;1254;70452;-58
2023/08/23 08:13:50;;;;;;;6.00;2.20;;;;;;;24.64;39.25;100628.14;105378;1259;62504;-59
2023/08/23 08:16:18;;;;;;;4.80;1.90;;;;;;;24.63;39.63;100629.83;105545;1253;60565;-58
2023/08/23 08:18:50;;;;;;;6.80;2.30;;;;;;;24.71;40.27;100630.98;105967;1253;60637;-58
2023/08/23 08:21:19;;;;;;;5.80;2.00;;;;;;;24.82;39.95;100627.64;105372;1255;66006;-58
2023/08/23 08:23:47;;;;;;;5.30;1.80;;;;;;;24.90;39.73;100625.13;105546;1253;61849;-50
2023/08/23 08:26:16;;;;;;;5.50;2.00;;;;;;;24.99;39.88;100623.98;105696;1258;62489;-52
2023/08/23 08:28:46;;;;;;;5.30;1.80;;;;;;;25.10;39.78;100622.34;105446;1255;60579;-55
2023/08/23 08:31:15;;;;;;;5.40;2.00;;;;;;;25.23;39.14;100622.36;105480;1254;60877;-52
2023/08/23 08:33:43;;;;;;;4.80;1.80;;;;;;;25.30;38.40;100619.84;105409;1259;63815;-51
2023/08/23 08:36:13;;;;;;;5.90;1.70;;;;;;;25.32;38.56;100618.80;105453;1259;61516;-52
2023/08/23 08:38:42;;;;;;;6.30;2.50;;;;;;;25.36;38.74;100620.67;106277;1253;65892;-58
2023/08/23 08:41:10;;;;;;;6.80;2.00;;;;;;;25.42;38.50;100620.60;105295;1257;60605;-56
2023/08/23 08:43:37;;;;;;;7.10;2.30;;;;;;;25.48;38.10;100620.91;105364;1254;60299;-61
2023/08/23 08:46:06;;;;;;;6.60;1.90;;;;;;;25.56;38.35;100618.13;105274;1253;65246;-56
2023/08/23 08:48:34;;;;;;;4.60;2.20;;;;;;;25.65;37.95;100624.03;105338;1253;61284;-58
2023/08/23 08:51:02;;;;;;;6.20;2.30;;;;;;;25.66;37.62;100620.13;105274;1254;63759;-59
2023/08/23 08:53:31;;;;;;;6.10;1.80;;;;;;;25.65;37.89;100616.58;105432;1254;60483;-58
2023/08/23 08:55:59;;;;;;;5.80;1.90;;;;;;;25.67;37.90;100616.41;105668;1257;60524;-54
2023/08/23 08:58:26;;;;;;;4.40;1.90;;;;;;;25.72;38.05;100612.19;105250;1253;65362;-52
2023/08/23 09:00:54;;;;;;;6.10;2.20;;;;;;;25.78;37.79;100612.94;105278;1254;61467;-54
2023/08/23 09:03:21;;;;;;;8.10;2.50;;;;;;;25.82;37.90;100613.45;105294;1254;63717;-52
2023/08/23 09:05:49;;;;;;;5.10;2.10;;;;;;;25.86;38.06;100613.45;105249;1260;60552;-52
2023/08/23 09:08:17;;;;;;;5.50;2.20;;;;;;;25.91;37.63;100605.38;105210;1258;60375;-52
2023/08/23 09:10:44;;;;;;;6.60;2.40;;;;;;;25.93;37.58;100601.39;105390;1259;64999;-53
2023/08/23 09:13:12;;;;;;;4.80;1.80;;;;;;;25.99;37.63;100601.39;105296;1261;61419;-51
2023/08/23 09:15:39;;;;;;;6.60;2.20;;;;;;;26.04;37.26;100603.14;105309;1254;64104;-53
2023/08/23 09:18:07;;;;;;;5.20;2.10;;;;;;;26.08;37.19;100598.92;106866;1253;60927;-53
2023/08/23 09:20:35;;;;;;;6.60;2.20;;;;;;;26.12;37.09;100600.67;105661;1256;60434;-53
2023/08/23 09:23:03;;;;;;;5.30;1.80;;;;;;;26.16;37.18;100601.38;105671;1256;64843;-53
2023/08/23 09:25:30;;;;;;;5.20;2.10;;;;;;;26.19;37.10;100598.83;105386;1253;62438;-54
2023/08/23 09:27:58;;;;;;;4.10;1.80;;;;;;;26.24;37.00;100599.20;105208;1254;62975;-53
2023/08/23 09:30:26;;;;;;;4.80;1.90;;;;;;;26.31;36.72;100603.25;105391;1254;61566;-54
2023/08/23 09:32:53;;;;;;;7.50;2.20;;;;;;;26.36;36.65;100605.02;106296;1255;60531;-54
2023/08/23 09:35:21;;;;;;;6.60;2.20;;;;;;;26.40;36.12;100600.51;105253;1253;64900;-52
2023/08/23 09:37:49;;;;;;;4.90;1.80;;;;;;;26.39;36.23;100600.75;105148;1254;61527;-53
2023/08/23 09:40:22;;;;;;;6.30;2.50;;;;;;;26.41;36.48;100602.27;105286;1257;63880;-53
2023/08/23 09:42:51;;;;;;;8.30;2.30;;;;;;;26.46;35.93;100601.73;105613;1254;60483;-55
2023/08/23 09:45:23;;;;;;;11.80;2.30;;;;;;;26.48;35.09;100600.27;105227;1259;60426;-54
2023/08/23 09:47:52;;;;;;;5.20;1.70;;;;;;;26.46;35.35;100593.10;105270;1253;64960;-56
2023/08/23 09:50:24;;;;;;;14.60;3.30;;;;;;;26.43;34.89;100593.88;105248;1253;62711;-56
2023/08/23 09:52:57;;;;;;;6.20;2.10;;;;;;;26.37;35.45;100593.77;105315;1259;62517;-59
2023/08/23 09:55:25;;;;;;;6.60;2.70;;;;;;;26.31;35.51;100603.09;105175;1254;60506;-59
2023/08/23 09:57:53;;;;;;;6.00;2.10;;;;;;;26.22;35.61;100601.67;105478;1254;60502;-59
2023/08/23 10:00:21;;;;;;;6.20;2.20;;;;;;;26.17;35.76;100591.05;105398;1258;64942;-58
2023/08/23 10:02:49;;;;;;;7.50;2.10;;;;;;;26.21;35.79;100590.69;107494;1256;60265;-57
2023/08/23 10:05:17;;;;;;;5.50;2.10;;;;;;;26.29;35.24;100590.08;105206;1259;62460;-57
2023/08/23 10:07:45;;;;;;;8.00;2.20;;;;;;;26.37;34.66;100586.55;105236;1254;60996;-58
2023/08/23 10:10:12;;;;;;;5.90;2.00;;;;;;;26.41;34.48;100588.09;104969;1259;60770;-57
2023/08/23 10:12:45;;;;;;;5.00;2.00;;;;;;;26.44;34.99;100589.46;105133;1253;64209;-57
2023/08/23 10:15:15;;;;;;;4.10;1.90;;;;;;;26.49;35.54;100588.50;105378;1253;60446;-58
2023/08/23 10:17:43;;;;;;;4.00;1.80;;;;;;;26.59;35.11;100589.54;105402;1253;63760;-58
2023/08/23 10:20:11;;;;;;;5.60;1.70;;;;;;;26.68;34.80;100584.73;105083;1253;61168;-57
2023/08/23 10:22:42;;;;;;;6.00;2.00;;;;;;;26.78;34.52;100580.75;105324;1257;60536;-56
2023/08/23 10:25:20;;;;;;;4.50;1.60;;;;;;;26.86;34.24;100583.39;105165;1254;72906;-59
2023/08/23 10:27:49;;;;;;;5.20;2.10;;;;;;;26.91;34.74;100579.39;106423;1253;61893;-62
2023/08/23 10:30:23;;;;;;;7.30;2.40;;;;;;;26.96;34.65;100575.52;105505;1254;63758;-58
2023/08/23 10:32:52;;;;;;;5.90;2.20;;;;;;;26.98;34.22;100572.71;105702;1255;61089;-55
2023/08/23 10:35:31;;;;;;;5.30;1.90;;;;;;;27.00;34.26;100570.13;105460;1253;60549;-54
2023/08/23 10:37:59;;;;;;;6.20;2.30;;;;;;;27.07;34.50;100565.30;106071;1254;64964;-54
2023/08/23 10:40:28;;;;;;;6.10;2.00;;;;;;;27.17;34.88;100558.87;105556;1253;61307;-57
2023/08/23 10:42:56;;;;;;;4.50;1.80;;;;;;;27.28;34.78;100561.44;105385;1254;63830;-57
2023/08/23 10:45:24;;;;;;;4.30;1.60;;;;;;;27.35;33.85;100561.77;105382;1255;60591;-57
2023/08/23 10:47:52;;;;;;;6.90;1.60;;;;;;;27.34;33.43;100556.00;105764;1253;60492;-58
2023/08/23 10:50:20;;;;;;;5.20;1.80;;;;;;;27.26;33.15;100551.18;105385;1256;63652;-59
2023/08/23 10:52:50;;;;;;;5.20;2.10;;;;;;;27.22;33.71;100547.33;105214;1255;60449;-59
2023/08/23 10:55:18;;;;;;;5.50;1.80;;;;;;;27.27;34.26;100550.40;105282;1253;62516;-63
2023/08/23 10:57:46;;;;;;;3.90;1.40;;;;;;;27.39;33.86;100545.50;105404;1254;60572;-58
2023/08/23 11:00:15;;;;;;;5.90;1.80;;;;;;;27.51;32.99;100538.08;105330;1253;60378;-59
2023/08/23 11:02:42;;;;;;;4.00;1.70;;;;;;;27.58;32.89;100535.77;105400;1253;65382;-49
2023/08/23 11:05:10;;;;;;;7.10;1.90;;;;;;;27.61;33.06;100544.21;105266;1256;60484;-50
2023/08/23 11:07:38;;;;;;;4.20;2.10;;;;;;;27.58;32.67;100539.77;105282;1254;63784;-48
2023/08/23 11:10:08;;;;;;;5.10;1.70;;;;;;;27.58;32.67;100538.58;105165;1258;60512;-48
2023/08/23 11:12:38;;;;;;;6.80;1.70;;;;;;;27.63;32.62;100538.65;105931;1256;60446;-48
2023/08/23 11:15:06;;;;;;;4.80;1.60;;;;;;;27.71;32.51;100532.78;105528;1254;64853;-59
2023/08/23 11:17:34;;;;;;;4.80;1.70;;;;;;;27.79;32.73;100530.86;105575;1253;61476;-58
2023/08/23 11:20:03;;;;;;;6.30;2.10;;;;;;;27.90;32.67;100531.16;105167;1254;62532;-55
2023/08/23 11:22:30;;;;;;;6.10;1.90;;;;;;;28.01;31.73;100528.70;105313;1253;60504;-54
2023/08/23 11:24:59;;;;;;;5.60;1.90;;;;;;;28.07;31.43;100524.80;105139;1253;60625;-57